Time;durP1;ratioP1;P1;durP2;ratioP2;P2;SDS_P1;SDS_P2;PMS_P1;PMS_P2;Temp;Humidity;BMP_temperature;BMP_pressure;BME280_temperature;BME280_humidity;BME280_pressure;Samples;Min_cycle;Max_cycle;Signal;HPM_P1;HPM_P2
2022/09/18 00:02:15;;;;;;;;;;;17.00;95.80;;;;;;4972435;28;19914;-70
2022/09/18 00:04:41;;;;;;;;;;;17.10;95.80;;;;;;4973338;28;19914;-68
2022/09/18 00:07:08;;;;;;;;;;;17.10;96.00;;;;;;4972481;28;19981;-69
2022/09/18 00:09:35;;;;;;;;;;;17.10;96.40;;;;;;4971878;28;19921;-67
2022/09/18 00:12:01;;;;;;;;;;;17.20;96.10;;;;;;4973569;28;20263;-68
2022/09/18 00:14:28;;;;;;;;;;;17.20;96.20;;;;;;4970594;28;20025;-68
2022/09/18 00:16:55;;;;;;;;;;;17.30;96.50;;;;;;4973327;28;19910;-69
2022/09/18 00:19:21;;;;;;;;;;;17.30;95.30;;;;;;4973254;28;19914;-68
2022/09/18 00:21:49;;;;;;;;;;;17.40;96.10;;;;;;4973447;28;20044;-72
2022/09/18 00:24:16;;;;;;;;;;;17.40;96.10;;;;;;4973070;28;20402;-69
2022/09/18 00:26:44;;;;;;;;;;;17.40;95.70;;;;;;4973459;28;20357;-70
2022/09/18 00:29:11;;;;;;;;;;;17.50;96.10;;;;;;4973284;28;20017;-72
2022/09/18 00:31:38;;;;;;;;;;;17.60;95.80;;;;;;4973227;28;19910;-70
2022/09/18 00:34:07;;;;;;;;;;;17.70;95.60;;;;;;4973211;28;19925;-70
2022/09/18 00:36:34;;;;;;;;;;;17.70;95.50;;;;;;4972944;28;20361;-72
2022/09/18 00:39:02;;;;;;;;;;;17.70;95.80;;;;;;4973292;28;19945;-72
2022/09/18 00:41:30;;;;;;;;;;;17.80;95.80;;;;;;4973346;28;19918;-72
2022/09/18 00:44:15;;;;;;;;;;;17.80;95.70;;;;;;4973329;28;20357;-73
2022/09/18 00:46:43;;;;;;;;;;;17.80;94.90;;;;;;4972932;28;19950;-72
2022/09/18 00:49:23;;;;;;;;;;;17.80;95.50;;;;;;4973094;28;20293;-71
2022/09/18 00:51:52;;;;;;;;;;;18.00;95.20;;;;;;4972918;28;19921;-69
2022/09/18 00:54:22;;;;;;;;;;;18.00;94.70;;;;;;4972853;28;20009;-70
2022/09/18 00:56:50;;;;;;;;;;;18.00;94.70;;;;;;4973151;28;20060;-71
2022/09/18 00:59:23;;;;;;;;;;;18.20;94.00;;;;;;4972893;28;20250;-70
2022/09/18 01:01:50;;;;;;;;;;;18.20;95.00;;;;;;4973556;28;20381;-71
2022/09/18 01:04:17;;;;;;;;;;;18.10;94.40;;;;;;4972616;28;19914;-71
2022/09/18 01:07:02;;;;;;;;;;;18.20;94.50;;;;;;4973028;28;19917;-67
2022/09/18 01:09:42;;;;;;;;;;;18.70;94.30;;;;;;4972895;28;19914;-69
2022/09/18 01:12:09;;;;;;;;;;;19.00;93.80;;;;;;4972839;28;19964;-71
2022/09/18 01:14:54;;;;;;;;;;;19.00;94.80;;;;;;4973938;28;20336;-70
2022/09/18 01:17:29;;;;;;;;;;;19.10;93.50;;;;;;4976466;28;20388;-71
2022/09/18 01:20:16;;;;;;;;;;;19.40;94.40;;;;;;4976568;28;19913;-70
2022/09/18 01:22:57;;;;;;;;;;;20.20;92.20;;;;;;4976623;28;19917;-71
2022/09/18 01:25:42;;;;;;;;;;;20.50;92.90;;;;;;4975303;28;19918;-71
2022/09/18 01:28:14;;;;;;;;;;;21.30;91.40;;;;;;4976524;28;19911;-69
2022/09/18 01:30:41;;;;;;;;;;;20.70;90.80;;;;;;4976436;28;19969;-69
2022/09/18 01:33:27;;;;;;;;;;;20.60;91.70;;;;;;4976206;28;19925;-71
2022/09/18 01:35:57;;;;;;;;;;;20.40;91.90;;;;;;4976297;28;19914;-70
2022/09/18 01:38:23;;;;;;;;;;;20.00;91.90;;;;;;4976305;28;20439;-71
2022/09/18 01:40:56;;;;;;;;;;;19.70;92.10;;;;;;4976278;28;20004;-71
2022/09/18 01:43:24;;;;;;;;;;;19.70;92.10;;;;;;4976148;28;19910;-68
2022/09/18 01:45:53;;;;;;;;;;;19.70;91.70;;;;;;4976048;28;19961;-71
2022/09/18 01:48:46;;;;;;;;;;;19.50;92.10;;;;;;4976118;28;19957;-67
2022/09/18 01:51:19;;;;;;;;;;;19.50;92.00;;;;;;4953185;28;19918;-71
2022/09/18 01:54:05;;;;;;;;;;;19.60;91.50;;;;;;4974724;28;19989;-69
2022/09/18 01:56:52;;;;;;;;;;;19.50;91.90;;;;;;4974895;28;19922;-69
2022/09/18 01:59:22;;;;;;;;;;;19.60;92.80;;;;;;4975865;28;19945;-71
2022/09/18 02:01:50;;;;;;;;;;;19.70;92.70;;;;;;4975373;28;20029;-71
2022/09/18 02:04:22;;;;;;;;;;;19.80;92.40;;;;;;4975835;28;19910;-71
2022/09/18 02:07:13;;;;;;;;;;;19.80;92.20;;;;;;4975504;28;20428;-70
2022/09/18 02:09:40;;;;;;;;;;;19.70;92.50;;;;;;4969483;28;19911;-71
2022/09/18 02:12:10;;;;;;;;;;;20.20;92.60;;;;;;4975749;28;19914;-70
2022/09/18 02:14:40;;;;;;;;;;;20.20;91.80;;;;;;4975403;28;19918;-69
2022/09/18 02:17:09;;;;;;;;;;;20.10;92.30;;;;;;4975645;28;19918;-72
2022/09/18 02:19:43;;;;;;;;;;;19.90;91.50;;;;;;4975708;28;19949;-71
2022/09/18 02:22:13;;;;;;;;;;;19.70;92.00;;;;;;4975780;28;19968;-72
2022/09/18 02:24:41;;;;;;;;;;;19.60;92.30;;;;;;4974921;28;20280;-71
2022/09/18 02:27:10;;;;;;;;;;;19.50;92.30;;;;;;4975282;28;19997;-70
2022/09/18 02:29:37;;;;;;;;;;;19.50;92.10;;;;;;4975617;28;19910;-70
2022/09/18 02:32:03;;;;;;;;;;;19.40;92.20;;;;;;4975316;28;19945;-69
2022/09/18 02:34:31;;;;;;;;;;;19.30;92.00;;;;;;4975041;28;19961;-70
2022/09/18 02:37:07;;;;;;;;;;;19.20;93.30;;;;;;4975338;28;20328;-71
2022/09/18 02:39:41;;;;;;;;;;;19.20;92.90;;;;;;4975120;28;20371;-72
2022/09/18 02:42:08;;;;;;;;;;;19.30;92.60;;;;;;4975293;28;19956;-71
2022/09/18 02:44:34;;;;;;;;;;;19.40;92.20;;;;;;4974746;28;19989;-68
2022/09/18 02:47:01;;;;;;;;;;;19.70;91.20;;;;;;4975067;28;19914;-71
2022/09/18 02:49:35;;;;;;;;;;;19.80;91.20;;;;;;4975260;28;19914;-71
2022/09/18 02:52:04;;;;;;;;;;;19.70;90.80;;;;;;4975357;28;19919;-72
2022/09/18 02:54:31;;;;;;;;;;;19.70;91.20;;;;;;4974821;28;19914;-72
2022/09/18 02:57:09;;;;;;;;;;;19.70;91.10;;;;;;4974909;28;20328;-70
2022/09/18 02:59:38;;;;;;;;;;;19.90;90.40;;;;;;4974761;28;20370;-74
2022/09/18 03:02:05;;;;;;;;;;;20.10;89.90;;;;;;4974809;28;19917;-72
2022/09/18 03:04:32;;;;;;;;;;;20.10;90.00;;;;;;4974052;28;20000;-69
2022/09/18 03:06:59;;;;;;;;;;;20.00;90.40;;;;;;4974878;28;19976;-72
2022/09/18 03:09:28;;;;;;;;;;;20.00;90.60;;;;;;4974745;28;20379;-71
2022/09/18 03:11:55;;;;;;;;;;;20.10;91.40;;;;;;4974803;28;20016;-72
2022/09/18 03:14:25;;;;;;;;;;;20.30;90.30;;;;;;4972996;28;20373;-70
2022/09/18 03:16:52;;;;;;;;;;;20.20;90.70;;;;;;4973735;28;20013;-73
2022/09/18 03:19:18;;;;;;;;;;;20.30;90.40;;;;;;4974565;28;19918;-72
2022/09/18 03:21:45;;;;;;;;;;;20.40;90.40;;;;;;4974688;28;19914;-70
2022/09/18 03:24:12;;;;;;;;;;;20.30;90.10;;;;;;4973743;28;19925;-72
2022/09/18 03:26:38;;;;;;;;;;;20.30;90.30;;;;;;4974443;28;19910;-70
2022/09/18 03:29:09;;;;;;;;;;;20.20;90.40;;;;;;4974216;28;19914;-71
2022/09/18 03:31:35;;;;;;;;;;;20.20;90.20;;;;;;4974257;28;19917;-71
2022/09/18 03:34:02;;;;;;;;;;;20.30;90.60;;;;;;4974127;28;19933;-70
2022/09/18 03:36:30;;;;;;;;;;;20.20;88.60;;;;;;4974019;28;19917;-72
2022/09/18 03:38:57;;;;;;;;;;;20.20;89.90;;;;;;4974290;28;20373;-69
2022/09/18 03:41:24;;;;;;;;;;;20.30;89.80;;;;;;4974330;28;19996;-68
2022/09/18 03:43:51;;;;;;;;;;;20.40;89.40;;;;;;4974070;28;20280;-68
2022/09/18 03:46:22;;;;;;;;;;;20.30;89.30;;;;;;4974615;28;20281;-70
2022/09/18 03:48:52;;;;;;;;;;;20.30;90.00;;;;;;4974452;28;19911;-70
2022/09/18 03:51:19;;;;;;;;;;;20.20;88.90;;;;;;4974159;28;19918;-71
2022/09/18 03:53:46;;;;;;;;;;;20.20;90.30;;;;;;4974694;28;20447;-72
2022/09/18 03:56:14;;;;;;;;;;;20.20;88.30;;;;;;4974068;28;19910;-70
2022/09/18 03:58:41;;;;;;;;;;;20.10;88.50;;;;;;4975045;28;19918;-68
2022/09/18 04:01:07;;;;;;;;;;;20.20;89.00;;;;;;4978098;28;20329;-69
2022/09/18 04:03:34;;;;;;;;;;;20.30;87.90;;;;;;4985568;28;19910;-70
2022/09/18 04:06:01;;;;;;;;;;;20.30;88.20;;;;;;4984176;28;19911;-69
2022/09/18 04:08:28;;;;;;;;;;;20.30;89.30;;;;;;4982852;28;19941;-70
2022/09/18 04:10:54;;;;;;;;;;;20.20;88.90;;;;;;4982570;28;19914;-68
2022/09/18 04:13:21;;;;;;;;;;;20.50;88.20;;;;;;4979804;28;19918;-67
2022/09/18 04:15:49;;;;;;;;;;;20.60;87.90;;;;;;4973992;28;19910;-69
2022/09/18 04:18:18;;;;;;;;;;;20.40;87.60;;;;;;4956731;28;19910;-69
2022/09/18 04:20:45;;;;;;;;;;;20.50;87.50;;;;;;4973889;28;20016;-70
2022/09/18 04:23:13;;;;;;;;;;;20.60;87.60;;;;;;4973690;28;19914;-71
2022/09/18 04:25:40;;;;;;;;;;;20.50;87.30;;;;;;4973416;28;19914;-72
2022/09/18 04:28:07;;;;;;;;;;;20.60;86.60;;;;;;4973686;28;19937;-71
2022/09/18 04:30:33;;;;;;;;;;;20.50;86.90;;;;;;4973314;28;20333;-72
2022/09/18 04:33:00;;;;;;;;;;;20.40;87.50;;;;;;4973194;28;19921;-70
2022/09/18 04:35:27;;;;;;;;;;;20.50;87.00;;;;;;4973008;28;20392;-71
2022/09/18 04:37:54;;;;;;;;;;;20.50;86.90;;;;;;4973224;28;19920;-69
2022/09/18 04:40:20;;;;;;;;;;;20.50;86.90;;;;;;4971663;28;19915;-72
2022/09/18 04:42:47;;;;;;;;;;;20.60;86.10;;;;;;4972186;28;19961;-69
2022/09/18 04:45:14;;;;;;;;;;;20.70;85.60;;;;;;4972747;28;19910;-71
2022/09/18 04:47:43;;;;;;;;;;;20.60;86.80;;;;;;4972886;28;20388;-71
2022/09/18 04:50:11;;;;;;;;;;;20.60;85.40;;;;;;4971799;28;19910;-71
2022/09/18 04:52:38;;;;;;;;;;;20.60;87.00;;;;;;4972725;28;19918;-69
2022/09/18 04:55:05;;;;;;;;;;;20.50;87.10;;;;;;4972529;28;19915;-72
2022/09/18 04:57:32;;;;;;;;;;;20.50;85.50;;;;;;4976950;28;19915;-70
2022/09/18 04:59:58;;;;;;;;;;;20.40;84.80;;;;;;4973408;28;19922;-69
2022/09/18 05:02:25;;;;;;;;;;;20.40;85.50;;;;;;4973335;28;20283;-68
2022/09/18 05:04:52;;;;;;;;;;;20.40;85.90;;;;;;4972786;28;20289;-71
2022/09/18 05:07:19;;;;;;;;;;;20.30;85.70;;;;;;4972465;28;20004;-69
2022/09/18 05:09:46;;;;;;;;;;;20.20;85.10;;;;;;4973083;28;19914;-69
2022/09/18 05:12:12;;;;;;;;;;;20.20;85.70;;;;;;4973026;28;19929;-69
2022/09/18 05:14:40;;;;;;;;;;;20.40;84.30;;;;;;4972829;28;20309;-69
2022/09/18 05:17:06;;;;;;;;;;;20.50;84.90;;;;;;4972864;28;19916;-73
2022/09/18 05:19:33;;;;;;;;;;;20.40;84.80;;;;;;4970876;28;19914;-69
2022/09/18 05:22:02;;;;;;;;;;;20.40;84.70;;;;;;4972562;28;19918;-71
2022/09/18 05:24:29;;;;;;;;;;;20.40;85.40;;;;;;4972545;28;20281;-70
2022/09/18 05:26:56;;;;;;;;;;;20.40;85.00;;;;;;4972789;28;19910;-72
2022/09/18 05:29:22;;;;;;;;;;;20.40;84.40;;;;;;4972769;28;19968;-73
2022/09/18 05:31:49;;;;;;;;;;;20.40;84.80;;;;;;4972795;28;19910;-72
2022/09/18 05:34:15;;;;;;;;;;;20.40;84.70;;;;;;4972399;28;19918;-70
2022/09/18 05:36:42;;;;;;;;;;;20.50;83.00;;;;;;4973011;28;20428;-72
2022/09/18 05:39:09;;;;;;;;;;;20.40;84.50;;;;;;4972401;28;19967;-72
2022/09/18 05:41:35;;;;;;;;;;;20.30;84.20;;;;;;4972811;28;19949;-73
2022/09/18 05:44:02;;;;;;;;;;;20.30;85.80;;;;;;4972376;28;19949;-73
2022/09/18 05:46:29;;;;;;;;;;;20.30;84.00;;;;;;4970404;28;19914;-69
2022/09/18 05:48:55;;;;;;;;;;;20.40;83.90;;;;;;4972352;28;19911;-72
2022/09/18 05:51:22;;;;;;;;;;;20.40;84.20;;;;;;4972465;28;20352;-76
2022/09/18 05:53:49;;;;;;;;;;;20.30;84.70;;;;;;4972062;28;20009;-71
2022/09/18 05:56:15;;;;;;;;;;;20.30;83.50;;;;;;4972400;28;19973;-71
2022/09/18 05:58:42;;;;;;;;;;;20.40;83.20;;;;;;4972341;28;20396;-71
2022/09/18 06:01:09;;;;;;;;;;;20.30;85.40;;;;;;4974495;28;19953;-68
2022/09/18 06:03:36;;;;;;;;;;;20.20;85.20;;;;;;4975803;28;19914;-72
2022/09/18 06:06:02;;;;;;;;;;;20.20;85.20;;;;;;4975999;28;19918;-70
2022/09/18 06:08:29;;;;;;;;;;;20.30;84.80;;;;;;4976267;28;20361;-69
2022/09/18 06:10:59;;;;;;;;;;;20.10;83.80;;;;;;4975997;28;19937;-70
2022/09/18 06:13:26;;;;;;;;;;;20.00;84.60;;;;;;4975738;28;19961;-68
2022/09/18 06:15:52;;;;;;;;;;;20.00;85.10;;;;;;4975225;28;19918;-73
2022/09/18 06:18:19;;;;;;;;;;;20.00;84.10;;;;;;4975878;28;19957;-72
2022/09/18 06:20:56;;;;;;;;;;;19.90;85.90;;;;;;4975731;28;19910;-73
2022/09/18 06:23:23;;;;;;;;;;;19.90;85.50;;;;;;4975780;28;20357;-73
2022/09/18 06:26:00;;;;;;;;;;;20.00;85.40;;;;;;4975426;28;20290;-74
2022/09/18 06:28:26;;;;;;;;;;;20.00;85.20;;;;;;4975770;28;19914;-75
2022/09/18 06:30:53;;;;;;;;;;;19.90;85.30;;;;;;4975396;28;19917;-72
2022/09/18 06:33:20;;;;;;;;;;;19.90;85.20;;;;;;4975340;28;19918;-74
2022/09/18 06:35:48;;;;;;;;;;;19.80;87.20;;;;;;4975196;28;19921;-71
2022/09/18 06:38:14;;;;;;;;;;;19.70;86.50;;;;;;4975387;28;19914;-69
2022/09/18 06:40:47;;;;;;;;;;;19.70;85.90;;;;;;4975394;28;19933;-70
2022/09/18 06:43:14;;;;;;;;;;;19.60;84.90;;;;;;4975256;28;19921;-70
2022/09/18 06:45:41;;;;;;;;;;;19.60;85.50;;;;;;4974926;28;20292;-71
2022/09/18 06:48:07;;;;;;;;;;;19.70;85.70;;;;;;4975374;28;19917;-72
2022/09/18 06:50:34;;;;;;;;;;;19.60;87.10;;;;;;4975835;28;20340;-70
2022/09/18 06:53:02;;;;;;;;;;;19.60;86.40;;;;;;4977530;28;20001;-71
2022/09/18 06:55:30;;;;;;;;;;;19.50;88.20;;;;;;4977251;28;20005;-69
2022/09/18 06:57:57;;;;;;;;;;;19.40;87.30;;;;;;4975375;28;19914;-70
2022/09/18 07:00:25;;;;;;;;;;;19.40;87.70;;;;;;4974830;28;19926;-69
2022/09/18 07:02:58;;;;;;;;;;;19.40;88.10;;;;;;4974937;28;19914;-69
2022/09/18 07:05:25;;;;;;;;;;;19.40;86.30;;;;;;4974525;28;20343;-69
2022/09/18 07:07:52;;;;;;;;;;;19.30;86.70;;;;;;4974910;28;19918;-69
2022/09/18 07:10:19;;;;;;;;;;;19.30;88.50;;;;;;4974908;28;19917;-69
2022/09/18 07:12:47;;;;;;;;;;;19.30;87.30;;;;;;4973876;28;19918;-69
2022/09/18 07:15:15;;;;;;;;;;;19.30;88.00;;;;;;4974185;28;19921;-69
2022/09/18 07:17:42;;;;;;;;;;;19.30;85.90;;;;;;4974972;28;19921;-67
2022/09/18 07:20:10;;;;;;;;;;;19.30;86.90;;;;;;4974798;28;20289;-69
2022/09/18 07:22:36;;;;;;;;;;;19.20;87.00;;;;;;4974407;28;19917;-70
2022/09/18 07:25:04;;;;;;;;;;;19.10;86.50;;;;;;4974222;28;19914;-71
2022/09/18 07:27:32;;;;;;;;;;;19.00;85.60;;;;;;4974771;28;20286;-68
2022/09/18 07:29:58;;;;;;;;;;;19.10;86.10;;;;;;4975067;28;19914;-69
2022/09/18 07:32:25;;;;;;;;;;;19.00;85.80;;;;;;4979389;28;19918;-69
2022/09/18 07:34:53;;;;;;;;;;;18.90;85.20;;;;;;4978730;28;19914;-68
2022/09/18 07:37:19;;;;;;;;;;;18.90;85.50;;;;;;4974629;28;19969;-72
2022/09/18 07:39:46;;;;;;;;;;;18.80;85.20;;;;;;4974612;28;20429;-70
2022/09/18 07:42:13;;;;;;;;;;;18.90;85.80;;;;;;4974395;28;20369;-73
2022/09/18 07:44:40;;;;;;;;;;;18.90;85.10;;;;;;4973720;28;19922;-72
2022/09/18 07:47:06;;;;;;;;;;;18.90;85.70;;;;;;4971283;28;19921;-70
2022/09/18 07:49:37;;;;;;;;;;;18.80;86.60;;;;;;4971117;28;19914;-73
2022/09/18 07:52:04;;;;;;;;;;;18.70;86.30;;;;;;4972450;28;20554;-73
2022/09/18 07:54:31;;;;;;;;;;;18.70;85.90;;;;;;4971751;28;20362;-69
2022/09/18 07:56:58;;;;;;;;;;;18.60;86.50;;;;;;4971953;28;19917;-72
2022/09/18 07:59:25;;;;;;;;;;;18.60;86.50;;;;;;4971569;28;20563;-69
2022/09/18 08:01:54;;;;;;;;;;;18.60;87.50;;;;;;4954303;28;19918;-73
2022/09/18 08:04:21;;;;;;;;;;;18.50;88.10;;;;;;4971625;28;19921;-68
2022/09/18 08:06:54;;;;;;;;;;;18.50;87.80;;;;;;4972279;28;19914;-70
2022/09/18 08:09:21;;;;;;;;;;;18.50;86.50;;;;;;4971812;28;20325;-73
2022/09/18 08:11:50;;;;;;;;;;;18.40;88.20;;;;;;4971892;28;20361;-71
2022/09/18 08:14:17;;;;;;;;;;;18.40;87.00;;;;;;4970913;28;20400;-68
2022/09/18 08:16:44;;;;;;;;;;;18.40;88.00;;;;;;4962376;28;19910;-69
2022/09/18 08:19:11;;;;;;;;;;;18.40;88.50;;;;;;4958150;28;19921;-69
2022/09/18 08:21:41;;;;;;;;;;;18.40;89.30;;;;;;4955409;28;19925;-68
2022/09/18 08:24:08;;;;;;;;;;;18.30;89.70;;;;;;4971161;28;20340;-67
2022/09/18 08:26:37;;;;;;;;;;;18.30;88.50;;;;;;4971979;28;19977;-70
2022/09/18 08:29:05;;;;;;;;;;;18.30;87.80;;;;;;4971246;28;19985;-69
2022/09/18 08:31:32;;;;;;;;;;;18.30;88.20;;;;;;4971824;28;20373;-71
2022/09/18 08:33:59;;;;;;;;;;;18.20;88.50;;;;;;4971604;28;19918;-71
2022/09/18 08:36:25;;;;;;;;;;;18.20;88.40;;;;;;4970697;28;19918;-68
2022/09/18 08:38:54;;;;;;;;;;;18.20;88.60;;;;;;4970791;28;19914;-69
2022/09/18 08:41:33;;;;;;;;;;;18.10;88.70;;;;;;4971136;28;19914;-71
2022/09/18 08:43:59;;;;;;;;;;;18.10;89.40;;;;;;4970921;28;20265;-71
2022/09/18 08:46:31;;;;;;;;;;;18.00;88.80;;;;;;4909586;28;19955;-71
2022/09/18 08:49:21;;;;;;;;;;;18.00;88.50;;;;;;4877233;29;19923;-71
2022/09/18 08:52:01;;;;;;;;;;;18.00;89.90;;;;;;4883346;29;19923;-71
2022/09/18 08:54:42;;;;;;;;;;;17.90;88.80;;;;;;4895448;29;19927;-72
2022/09/18 08:57:14;;;;;;;;;;;17.90;88.30;;;;;;4911426;29;19994;-71
2022/09/18 08:59:43;;;;;;;;;;;17.90;88.30;;;;;;4895718;29;20510;-73
2022/09/18 09:02:15;;;;;;;;;;;18.00;89.60;;;;;;4901680;29;19936;-71
2022/09/18 09:04:42;;;;;;;;;;;17.90;90.10;;;;;;4909299;29;19915;-72
2022/09/18 09:07:16;;;;;;;;;;;17.90;88.30;;;;;;4898092;29;19911;-72
2022/09/18 09:09:52;;;;;;;;;;;17.90;89.90;;;;;;4893829;29;19915;-71
2022/09/18 09:12:34;;;;;;;;;;;17.80;89.70;;;;;;4894810;29;19926;-71
2022/09/18 09:15:15;;;;;;;;;;;17.80;89.40;;;;;;4891811;29;19973;-69
2022/09/18 09:18:06;;;;;;;;;;;17.80;88.20;;;;;;4895547;29;19915;-71
2022/09/18 09:20:51;;;;;;;;;;;17.80;89.20;;;;;;4878478;29;20341;-70
2022/09/18 09:23:36;;;;;;;;;;;17.80;88.50;;;;;;4892378;29;20034;-72
2022/09/18 09:26:02;;;;;;;;;;;17.80;89.40;;;;;;4895279;29;19923;-72
2022/09/18 09:28:32;;;;;;;;;;;17.70;90.10;;;;;;4895217;29;19934;-71
2022/09/18 09:31:01;;;;;;;;;;;17.70;90.00;;;;;;4884800;29;20394;-72
2022/09/18 09:33:39;;;;;;;;;;;17.70;88.10;;;;;;4892680;29;19928;-72
2022/09/18 09:36:11;;;;;;;;;;;17.70;88.50;;;;;;4897071;29;19912;-72
2022/09/18 09:38:37;;;;;;;;;;;17.70;90.00;;;;;;4898929;29;19919;-73
2022/09/18 09:41:12;;;;;;;;;;;17.70;89.80;;;;;;4897942;29;20036;-71
2022/09/18 09:43:49;;;;;;;;;;;17.60;89.50;;;;;;4898415;29;20394;-71
2022/09/18 09:46:36;;;;;;;;;;;17.60;88.50;;;;;;4898088;29;19987;-70
2022/09/18 09:49:11;;;;;;;;;;;17.60;90.10;;;;;;4908734;29;20014;-68
2022/09/18 09:51:45;;;;;;;;;;;17.60;88.90;;;;;;4917032;29;19923;-70
2022/09/18 09:54:12;;;;;;;;;;;17.50;89.00;;;;;;4916783;29;19927;-73
2022/09/18 09:56:39;;;;;;;;;;;17.50;90.00;;;;;;4916472;29;19918;-69
2022/09/18 09:59:12;;;;;;;;;;;17.50;89.10;;;;;;4925086;29;20382;-72
2022/09/18 10:01:57;;;;;;;;;;;17.50;89.40;;;;;;4935636;29;19919;-71
2022/09/18 10:04:30;;;;;;;;;;;17.50;90.40;;;;;;4935647;29;19922;-70
2022/09/18 10:07:17;;;;;;;;;;;17.40;89.30;;;;;;4936035;29;19915;-70
2022/09/18 10:09:43;;;;;;;;;;;17.40;90.60;;;;;;4936028;29;20011;-71
2022/09/18 10:12:10;;;;;;;;;;;17.40;90.20;;;;;;4935885;29;19921;-71
2022/09/18 10:14:39;;;;;;;;;;;17.30;90.40;;;;;;4934750;29;19925;-72
2022/09/18 10:17:06;;;;;;;;;;;17.30;89.90;;;;;;4935677;29;19915;-73
2022/09/18 10:19:37;;;;;;;;;;;17.30;89.90;;;;;;4935679;29;19918;-70
2022/09/18 10:22:06;;;;;;;;;;;17.20;90.10;;;;;;4935950;29;19921;-72
2022/09/18 10:24:49;;;;;;;;;;;17.20;90.20;;;;;;4935494;29;20275;-69
2022/09/18 10:27:16;;;;;;;;;;;17.20;91.10;;;;;;4935461;29;19923;-72
2022/09/18 10:29:43;;;;;;;;;;;17.20;90.70;;;;;;4935155;29;19922;-68
2022/09/18 10:32:12;;;;;;;;;;;17.10;91.20;;;;;;4935568;29;20434;-71
2022/09/18 10:34:41;;;;;;;;;;;17.10;90.60;;;;;;4937131;29;20289;-69
2022/09/18 10:37:14;;;;;;;;;;;17.10;90.50;;;;;;4945321;29;19945;-70
2022/09/18 10:39:55;;;;;;;;;;;17.10;90.80;;;;;;4942068;29;20309;-69
2022/09/18 10:42:24;;;;;;;;;;;17.00;90.70;;;;;;4935423;29;20499;-70
2022/09/18 10:44:57;;;;;;;;;;;17.00;90.80;;;;;;4934757;29;19911;-70
2022/09/18 10:47:28;;;;;;;;;;;17.00;91.30;;;;;;4934500;29;19915;-74
2022/09/18 10:49:56;;;;;;;;;;;16.90;91.50;;;;;;4935550;29;19954;-73
2022/09/18 10:52:32;;;;;;;;;;;16.90;91.50;;;;;;4934766;29;20332;-72
2022/09/18 10:55:01;;;;;;;;;;;16.90;91.10;;;;;;4934877;29;20263;-71
2022/09/18 10:57:32;;;;;;;;;;;16.90;91.10;;;;;;4935134;29;20259;-70
2022/09/18 11:00:00;;;;;;;;;;;16.90;91.90;;;;;;4934268;29;19974;-73
2022/09/18 11:02:28;;;;;;;;;;;16.90;91.50;;;;;;4935391;29;20465;-71
2022/09/18 11:04:55;;;;;;;;;;;16.80;91.40;;;;;;4934606;29;20444;-71
2022/09/18 11:07:23;;;;;;;;;;;16.70;91.60;;;;;;4934570;29;19922;-70
2022/09/18 11:09:50;;;;;;;;;;;16.70;91.80;;;;;;4934766;29;19946;-71
2022/09/18 11:12:25;;;;;;;;;;;16.70;91.90;;;;;;4934854;29;19961;-72
2022/09/18 11:14:59;;;;;;;;;;;16.70;92.00;;;;;;4933223;29;20370;-69
2022/09/18 11:17:28;;;;;;;;;;;16.70;92.30;;;;;;4934125;29;19915;-72
2022/09/18 11:19:57;;;;;;;;;;;16.70;92.20;;;;;;4934239;29;20445;-72
2022/09/18 11:22:34;;;;;;;;;;;16.70;92.60;;;;;;4933355;29;19926;-72
2022/09/18 11:25:18;;;;;;;;;;;16.70;92.10;;;;;;4933618;29;20318;-71
2022/09/18 11:27:45;;;;;;;;;;;16.80;92.70;;;;;;4934401;29;20421;-69
2022/09/18 11:30:15;;;;;;;;;;;16.80;92.80;;;;;;4933897;29;19915;-70
2022/09/18 11:32:45;;;;;;;;;;;16.80;92.70;;;;;;4933971;29;19934;-72
2022/09/18 11:35:14;;;;;;;;;;;16.80;93.20;;;;;;4933857;29;19919;-72
2022/09/18 11:37:51;;;;;;;;;;;16.80;92.40;;;;;;4934211;29;20389;-69
2022/09/18 11:40:41;;;;;;;;;;;16.80;92.70;;;;;;4934318;29;19911;-69
2022/09/18 11:43:17;;;;;;;;;;;16.80;93.00;;;;;;4930354;29;19915;-70
2022/09/18 11:45:53;;;;;;;;;;;16.70;92.60;;;;;;4933856;29;19911;-71
2022/09/18 11:48:25;;;;;;;;;;;16.80;93.30;;;;;;4934172;29;19993;-72
2022/09/18 11:50:54;;;;;;;;;;;16.80;93.30;;;;;;4934213;29;19915;-70
2022/09/18 11:53:29;;;;;;;;;;;16.70;92.80;;;;;;4932399;29;19926;-69
2022/09/18 11:56:14;;;;;;;;;;;16.70;93.10;;;;;;4933418;29;19939;-69
2022/09/18 11:58:48;;;;;;;;;;;16.70;93.40;;;;;;4932230;29;20318;-72
2022/09/18 12:01:24;;;;;;;;;;;16.60;93.30;;;;;;4933409;29;19919;-70
2022/09/18 12:04:13;;;;;;;;;;;16.60;93.40;;;;;;4931775;29;19962;-69
2022/09/18 12:06:56;;;;;;;;;;;16.60;93.40;;;;;;4916805;29;20392;-69
2022/09/18 12:09:36;;;;;;;;;;;16.60;93.60;;;;;;4932729;29;19914;-68
2022/09/18 12:12:10;;;;;;;;;;;16.60;93.70;;;;;;4935198;29;20001;-70
2022/09/18 12:14:50;;;;;;;;;;;16.50;93.40;;;;;;4945179;29;19990;-68
2022/09/18 12:17:23;;;;;;;;;;;16.50;93.80;;;;;;4933556;29;20033;-70
2022/09/18 12:19:53;;;;;;;;;;;16.40;93.80;;;;;;4932300;29;20318;-69
2022/09/18 12:22:26;;;;;;;;;;;16.40;93.80;;;;;;4933574;29;19911;-70
2022/09/18 12:24:52;;;;;;;;;;;16.40;93.50;;;;;;4932985;29;20339;-70
2022/09/18 12:27:28;;;;;;;;;;;16.40;93.80;;;;;;4932683;29;19957;-70
2022/09/18 12:29:57;;;;;;;;;;;16.40;94.30;;;;;;4933141;29;20400;-71
2022/09/18 12:32:42;;;;;;;;;;;16.40;93.90;;;;;;4933178;29;19911;-70
2022/09/18 12:35:34;;;;;;;;;;;16.40;93.90;;;;;;4932757;29;19915;-71
2022/09/18 12:38:13;;;;;;;;;;;16.50;94.10;;;;;;4932091;29;19915;-71
2022/09/18 12:40:49;;;;;;;;;;;16.50;94.20;;;;;;4933383;29;19914;-72
2022/09/18 12:43:42;;;;;;;;;;;16.40;94.30;;;;;;4932114;29;19921;-69
2022/09/18 12:46:27;;;;;;;;;;;16.30;94.50;;;;;;4930239;29;20282;-71
2022/09/18 12:48:59;;;;;;;;;;;16.30;94.60;;;;;;4933488;29;19911;-74
2022/09/18 12:51:29;;;;;;;;;;;16.30;94.90;;;;;;4937081;29;20382;-70
2022/09/18 12:53:56;;;;;;;;;;;16.20;95.00;;;;;;4935556;29;19978;-71
2022/09/18 12:56:23;;;;;;;;;;;16.20;94.80;;;;;;4938008;29;20017;-72
2022/09/18 12:59:09;;;;;;;;;;;16.20;94.60;;;;;;4938481;29;19923;-73
2022/09/18 13:01:48;;;;;;;;;;;16.10;94.80;;;;;;4937436;29;19915;-74
2022/09/18 13:04:33;;;;;;;;;;;16.10;94.80;;;;;;4936154;29;19957;-74
2022/09/18 13:07:03;;;;;;;;;;;16.00;95.20;;;;;;4928097;29;19916;-73
2022/09/18 13:09:33;;;;;;;;;;;16.00;95.20;;;;;;4917099;29;19922;-73
2022/09/18 13:12:12;;;;;;;;;;;16.00;95.10;;;;;;4920874;29;20370;-72
2022/09/18 13:14:42;;;;;;;;;;;15.90;95.20;;;;;;4920095;29;19943;-73
2022/09/18 13:17:29;;;;;;;;;;;15.90;95.80;;;;;;4919553;29;19915;-72
2022/09/18 13:20:11;;;;;;;;;;;15.80;96.20;;;;;;4931333;29;20299;-73
2022/09/18 13:22:38;;;;;;;;;;;15.80;96.40;;;;;;4939643;29;20279;-72
2022/09/18 13:25:13;;;;;;;;;;;15.70;96.20;;;;;;4939071;29;19918;-73
2022/09/18 13:27:39;;;;;;;;;;;15.60;96.40;;;;;;4938393;29;19978;-71
2022/09/18 13:30:24;;;;;;;;;;;15.60;96.50;;;;;;4938451;29;20321;-72
2022/09/18 13:32:52;;;;;;;;;;;15.50;96.60;;;;;;4938410;29;19965;-73
2022/09/18 13:35:24;;;;;;;;;;;15.40;96.80;;;;;;4938704;29;19914;-72
2022/09/18 13:38:16;;;;;;;;;;;15.30;96.90;;;;;;4938687;29;19982;-73
2022/09/18 13:41:09;;;;;;;;;;;15.20;97.00;;;;;;4936459;29;19915;-73
2022/09/18 13:43:48;;;;;;;;;;;15.10;97.20;;;;;;4935920;29;19954;-72
2022/09/18 13:46:30;;;;;;;;;;;15.10;97.30;;;;;;4938529;29;20006;-73
2022/09/18 13:48:57;;;;;;;;;;;15.10;97.50;;;;;;4938229;29;20318;-73
2022/09/18 13:51:31;;;;;;;;;;;15.10;98.10;;;;;;4951455;29;19986;-70
2022/09/18 13:54:16;;;;;;;;;;;15.10;98.50;;;;;;4944259;29;20290;-71
2022/09/18 13:57:08;;;;;;;;;;;15.10;98.20;;;;;;4939314;29;19939;-71
2022/09/18 13:59:44;;;;;;;;;;;15.10;98.50;;;;;;4935764;29;19954;-72
2022/09/18 14:02:40;;;;;;;;;;;15.20;98.30;;;;;;4938285;29;19916;-70
2022/09/18 14:05:25;;;;;;;;;;;15.20;97.90;;;;;;4925868;29;20005;-71
2022/09/18 14:07:56;;;;;;;;;;;15.30;98.60;;;;;;4938028;29;19915;-69
2022/09/18 14:10:34;;;;;;;;;;;15.30;97.90;;;;;;4936935;29;19969;-70
2022/09/18 14:13:06;;;;;;;;;;;15.30;98.10;;;;;;4938642;29;20358;-69
2022/09/18 14:15:33;;;;;;;;;;;15.30;98.60;;;;;;4938935;29;19919;-71
2022/09/18 14:18:06;;;;;;;;;;;15.30;98.60;;;;;;4940861;29;19962;-71
2022/09/18 14:20:34;;;;;;;;;;;15.30;98.90;;;;;;4939263;29;19915;-71
2022/09/18 14:23:18;;;;;;;;;;;15.30;99.20;;;;;;4938604;29;19993;-72
2022/09/18 14:25:47;;;;;;;;;;;15.30;99.10;;;;;;4939206;29;19918;-69
2022/09/18 14:28:15;;;;;;;;;;;15.20;99.50;;;;;;4938563;29;19915;-69
2022/09/18 14:30:42;;;;;;;;;;;15.10;99.30;;;;;;4942722;29;19922;-70
2022/09/18 14:33:10;;;;;;;;;;;15.10;99.30;;;;;;4943978;29;19966;-70
2022/09/18 14:35:51;;;;;;;;;;;15.20;99.50;;;;;;4940433;29;19915;-68
2022/09/18 14:38:25;;;;;;;;;;;15.20;99.60;;;;;;4954629;29;19998;-69
2022/09/18 14:40:54;;;;;;;;;;;15.20;99.70;;;;;;4940572;29;19910;-68